Impacts METAR Board INFO
IDs:

KJFK - New York/Kennedy Int, NY, US

Updated at: 1405 UTC 24 Feb 2018
Potential Impact None Slight Moderate High
Time24/02Z 24/03Z 24/04Z 24/05Z 24/06Z 24/07Z 24/08Z 24/09Z 24/10Z 24/11Z 24/12Z 24/13Z 24/14Z
VIS1.5 2 2.5 6 6 8 8 8 6 6 6 8 7
CIG4 6 6 6 8 8 7 7 150 -- 190 250 220
CoverOVCOVCOVCOVCOVCOVCOVCOVCBKNSCTBKNBKNBKN
FltCatLIFRIFRIFRIFRIFRIFRIFRIFRVFRVFRVFRVFRVFR
WXBRBRBRBRBR------BRBRBR----
WDir260230220220250250270270240270280290240
WSpd5 4 10 8 7 9 12 8 9 8 8 8 7
WGst-- -- -- -- -- -- -- -- -- -- -- -- --
Raw hourly METARs
KJFK 240151Z 26005KT 1 1/2SM BR OVC004 04/04 A3028 RMK AO2 SFC VIS 6 SLP254 T00440039
KJFK 240251Z 23004KT 2SM BR BKN006 OVC009 04/04 A3024 RMK AO2 SFC VIS 6 SLP240 T00390039 58017
KJFK 240351Z 22010KT 2 1/2SM BR OVC006 04/04 A3021 RMK AO2 SFC VIS 6 SLP229 T00440044
KJFK 240451Z 22008KT 6SM BR BKN006 BKN065 OVC160 04/04 A3018 RMK AO2 SLP220 T00440044 400440022
KJFK 240551Z 25007KT 6SM BR BKN008 BKN011 BKN050 OVC160 06/06 A3020 RMK AO2 SLP225 T00560056 10056 20039 55015
KJFK 240651Z 25009KT 8SM BKN008 BKN011 OVC060 06/06 A3018 RMK AO2 SLP218 T00610056
KJFK 240751Z 27012KT 8SM OVC007 06/06 A3017 RMK AO2 SLP216 T00610056
KJFK 240851Z 27008KT 8SM OVC007 06/06 A3015 RMK AO2 SLP210 T00610056 57015
KJFK 240951Z 24009KT 6SM BR SCT007 BKN150 BKN200 06/06 A3016 RMK AO2 SLP212 T00560056
KJFK 241051Z 27008KT 6SM BR FEW008 SCT150 SCT200 06/06 A3017 RMK AO2 SLP216 T00560056
KJFK 241205Z 28008KT 6SM BR SCT013 BKN190 BKN230 07/06 A3018 RMK AO2 T00670056
KJFK 241251Z 29008KT 8SM FEW014 SCT200 BKN250 08/07 A3018 RMK AO2 SLP220 T00830067
KJFK 241351Z 24007KT 7SM BKN220 BKN250 08/07 A3018 RMK AO2 SLP218 T00830067